createdAt,value
2022-08-03T00:00:07.682Z,14.84
2022-08-03T00:00:54.449Z,14.83
2022-08-03T00:01:42.370Z,14.83
2022-08-03T00:02:29.152Z,14.85
2022-08-03T00:03:15.957Z,14.83
2022-08-03T00:04:03.222Z,14.85
2022-08-03T00:04:50.059Z,14.88
2022-08-03T00:05:37.219Z,14.90
2022-08-03T00:06:24.057Z,14.91
2022-08-03T00:07:10.910Z,14.88
2022-08-03T00:07:57.680Z,14.85
2022-08-03T00:08:44.722Z,14.82
2022-08-03T00:09:35.488Z,14.81
2022-08-03T00:10:22.718Z,14.84
2022-08-03T00:11:09.476Z,14.86
2022-08-03T00:11:56.187Z,14.84
2022-08-03T00:12:42.890Z,14.84
2022-08-03T00:13:29.640Z,14.86
2022-08-03T00:14:16.409Z,14.98
2022-08-03T00:15:04.073Z,14.95
2022-08-03T00:15:57.157Z,14.87
2022-08-03T00:16:43.930Z,14.83
2022-08-03T00:17:30.711Z,14.81
2022-08-03T00:18:38.159Z,14.78
2022-08-03T00:19:24.929Z,14.80
2022-08-03T00:20:12.349Z,14.78
2022-08-03T00:20:59.079Z,14.83
2022-08-03T00:21:45.861Z,14.81
2022-08-03T00:22:35.499Z,14.78
2022-08-03T00:23:22.209Z,14.79
2022-08-03T00:24:09.048Z,14.82
2022-08-03T00:24:55.897Z,14.79
2022-08-03T00:25:42.800Z,14.82
2022-08-03T00:26:29.589Z,14.80
2022-08-03T00:27:16.626Z,14.79
2022-08-03T00:28:04.769Z,14.77
2022-08-03T00:28:51.699Z,14.78
2022-08-03T00:29:59.609Z,14.78
2022-08-03T00:30:45.407Z,14.78
2022-08-03T00:31:45.004Z,14.75
2022-08-03T00:32:44.989Z,14.75
2022-08-03T00:33:58.072Z,14.70
2022-08-03T00:34:57.769Z,14.69
2022-08-03T00:35:51.068Z,14.77
2022-08-03T00:36:37.939Z,14.74
2022-08-03T00:37:24.654Z,14.74
2022-08-03T00:38:28.479Z,14.76
2022-08-03T00:39:15.259Z,14.72
2022-08-03T00:40:03.609Z,14.66
2022-08-03T00:40:52.329Z,14.67
2022-08-03T00:41:39.069Z,14.65
2022-08-03T00:42:28.525Z,14.64
2022-08-03T00:43:15.790Z,14.66
2022-08-03T00:44:02.610Z,14.64
2022-08-03T00:44:49.541Z,14.66
2022-08-03T00:45:40.058Z,14.67
2022-08-03T00:46:26.651Z,14.65
2022-08-03T00:47:13.529Z,14.62
2022-08-03T00:48:01.730Z,14.63
2022-08-03T00:48:52.137Z,14.65
2022-08-03T00:49:41.979Z,14.65
2022-08-03T00:50:31.159Z,14.67
2022-08-03T00:51:19.294Z,14.65
2022-08-03T00:52:09.437Z,14.60
2022-08-03T00:52:57.501Z,14.55
2022-08-03T00:53:44.321Z,14.58
2022-08-03T00:54:31.100Z,14.62
2022-08-03T00:55:18.110Z,14.59
2022-08-03T00:56:05.209Z,14.56
2022-08-03T00:56:59.467Z,14.47
2022-08-03T00:57:46.809Z,14.48
2022-08-03T00:58:33.690Z,14.49
2022-08-03T00:59:21.500Z,14.49
2022-08-03T01:00:09.909Z,14.46
2022-08-03T01:00:56.876Z,14.41
2022-08-03T01:01:43.760Z,14.39
2022-08-03T01:02:30.539Z,14.36
2022-08-03T01:03:17.302Z,14.38
2022-08-03T01:04:04.121Z,14.35
2022-08-03T01:04:50.970Z,14.33
2022-08-03T01:05:56.969Z,14.33
2022-08-03T01:06:49.091Z,14.33
2022-08-03T01:08:03.940Z,14.35
2022-08-03T01:09:09.310Z,14.40
2022-08-03T01:10:07.059Z,14.40
2022-08-03T01:11:09.389Z,14.38
2022-08-03T01:12:04.288Z,14.35
2022-08-03T01:12:54.070Z,14.36
2022-08-03T01:14:18.537Z,14.33
2022-08-03T01:15:11.620Z,14.27
2022-08-03T01:16:11.280Z,14.28
2022-08-03T01:17:02.440Z,14.28
2022-08-03T01:17:55.830Z,14.35
2022-08-03T01:18:53.781Z,14.34
2022-08-03T01:19:51.341Z,14.24
2022-08-03T01:20:41.409Z,14.22
2022-08-03T01:21:37.049Z,14.18
2022-08-03T01:23:03.659Z,14.17
2022-08-03T01:24:07.687Z,14.16
2022-08-03T01:25:04.723Z,14.11
2022-08-03T01:26:21.439Z,14.16
2022-08-03T01:27:18.630Z,14.18
2022-08-03T01:28:24.248Z,14.20
2022-08-03T01:29:33.969Z,14.21
2022-08-03T01:30:21.021Z,14.20
2022-08-03T01:31:09.930Z,14.16
2022-08-03T01:32:58.801Z,14.13
2022-08-03T01:33:15.669Z,14.15
2022-08-03T01:34:04.620Z,14.08
2022-08-03T01:35:03.104Z,14.06
2022-08-03T01:36:10.041Z,14.08
2022-08-03T01:36:57.859Z,14.09
2022-08-03T01:38:00.104Z,14.01
2022-08-03T01:38:51.379Z,14.01
2022-08-03T01:39:39.999Z,14.07
2022-08-03T01:40:28.053Z,14.04
2022-08-03T01:41:19.069Z,14.01
2022-08-03T01:42:08.098Z,13.99
2022-08-03T01:42:56.438Z,13.99
2022-08-03T01:44:28.126Z,13.99
2022-08-03T01:44:52.799Z,14.00
2022-08-03T01:45:40.017Z,14.05
2022-08-03T01:46:27.329Z,14.03
2022-08-03T01:47:14.463Z,14.03
2022-08-03T01:48:02.088Z,14.00
2022-08-03T01:48:49.519Z,13.97
2022-08-03T01:49:40.354Z,13.99
2022-08-03T01:50:29.579Z,13.97
2022-08-03T01:51:18.910Z,13.92
2022-08-03T01:52:06.678Z,13.89
2022-08-03T01:52:55.160Z,13.89
2022-08-03T01:53:44.947Z,13.88
2022-08-03T01:54:36.870Z,13.87
2022-08-03T01:55:27.482Z,13.87
2022-08-03T01:56:14.500Z,13.84
2022-08-03T01:57:02.610Z,13.84
2022-08-03T01:58:05.247Z,13.81
2022-08-03T01:58:54.170Z,13.79
2022-08-03T01:59:42.533Z,13.78
2022-08-03T02:00:30.249Z,13.78
2022-08-03T02:01:17.481Z,13.79
2022-08-03T02:02:15.546Z,13.78
2022-08-03T02:03:13.557Z,13.79
2022-08-03T02:04:01.265Z,13.80
2022-08-03T02:04:48.419Z,13.81
2022-08-03T02:05:35.589Z,13.87
2022-08-03T02:07:02.058Z,13.91
2022-08-03T02:07:30.353Z,13.91
2022-08-03T02:08:18.399Z,13.85
2022-08-03T02:09:07.238Z,13.84
2022-08-03T02:09:54.971Z,13.81
2022-08-03T02:10:42.688Z,13.83
2022-08-03T02:11:31.841Z,13.85
2022-08-03T02:12:19.430Z,13.83
2022-08-03T02:13:08.259Z,13.82
2022-08-03T02:13:55.149Z,13.80
2022-08-03T02:14:44.748Z,13.79
2022-08-03T02:15:33.189Z,13.77
2022-08-03T02:16:20.387Z,13.78
2022-08-03T02:17:08.401Z,13.84
2022-08-03T02:17:56.026Z,13.86
2022-08-03T02:18:42.889Z,13.85
2022-08-03T02:19:35.500Z,13.84
2022-08-03T02:20:22.719Z,13.75
2022-08-03T02:21:11.395Z,13.71
2022-08-03T02:22:18.482Z,13.71
2022-08-03T02:23:06.858Z,13.75
2022-08-03T02:23:53.660Z,13.78
2022-08-03T02:24:40.869Z,13.77
2022-08-03T02:25:28.568Z,13.74
2022-08-03T02:26:17.919Z,13.74
2022-08-03T02:27:08.231Z,13.69
2022-08-03T02:28:09.140Z,13.63
2022-08-03T02:28:57.247Z,13.62
2022-08-03T02:29:47.418Z,13.62
2022-08-03T02:30:39.489Z,13.61
2022-08-03T02:31:29.390Z,13.62
2022-08-03T02:32:18.562Z,13.63
2022-08-03T02:33:08.890Z,13.64
2022-08-03T02:34:02.899Z,13.63
2022-08-03T02:34:52.411Z,13.62
2022-08-03T02:35:40.198Z,13.62
2022-08-03T02:36:29.598Z,13.61
2022-08-03T02:37:19.774Z,13.62
2022-08-03T02:38:08.559Z,13.59
2022-08-03T02:38:57.769Z,13.58
2022-08-03T02:39:47.608Z,13.55
2022-08-03T02:40:34.481Z,13.53
2022-08-03T02:41:40.116Z,13.54
2022-08-03T02:42:27.290Z,13.53
2022-08-03T02:43:18.459Z,13.46
2022-08-03T02:44:10.079Z,13.40
2022-08-03T02:44:58.877Z,13.44
2022-08-03T02:45:48.308Z,13.50
2022-08-03T02:46:40.319Z,13.55
2022-08-03T02:47:29.059Z,13.48
2022-08-03T02:48:37.438Z,13.50
2022-08-03T02:49:40.814Z,13.52
2022-08-03T02:50:31.856Z,13.54
2022-08-03T02:51:19.589Z,13.46
2022-08-03T02:52:13.083Z,13.44
2022-08-03T02:53:02.158Z,13.43
2022-08-03T02:53:49.129Z,13.43
2022-08-03T02:54:36.467Z,13.39
2022-08-03T02:55:24.149Z,13.40
2022-08-03T02:56:12.010Z,13.39
2022-08-03T02:56:59.238Z,13.39
2022-08-03T02:57:47.187Z,13.35
2022-08-03T02:58:34.239Z,13.39
2022-08-03T02:59:21.447Z,13.44
2022-08-03T03:00:09.406Z,13.46
2022-08-03T03:00:56.553Z,13.43
2022-08-03T03:01:44.647Z,13.41
2022-08-03T03:02:32.215Z,13.42
2022-08-03T03:03:19.416Z,13.43
2022-08-03T03:04:07.777Z,13.43
2022-08-03T03:05:52.634Z,13.43
2022-08-03T03:06:05.812Z,13.45
2022-08-03T03:06:53.108Z,13.43
2022-08-03T03:07:53.091Z,13.42
2022-08-03T03:08:40.189Z,13.41
2022-08-03T03:09:27.058Z,13.36
2022-08-03T03:10:27.378Z,13.37
2022-08-03T03:11:15.679Z,13.44
2022-08-03T03:12:03.276Z,13.36
2022-08-03T03:12:55.738Z,13.35
2022-08-03T03:13:44.487Z,13.31
2022-08-03T03:14:33.746Z,13.27
2022-08-03T03:15:21.514Z,13.25
2022-08-03T03:16:08.878Z,13.26
2022-08-03T03:16:57.822Z,13.28
2022-08-03T03:17:45.038Z,13.31
2022-08-03T03:18:33.469Z,13.33
2022-08-03T03:19:20.448Z,13.33
2022-08-03T03:20:08.346Z,13.30
2022-08-03T03:20:55.839Z,13.27
2022-08-03T03:21:43.886Z,13.27
2022-08-03T03:22:31.768Z,13.32
2022-08-03T03:23:18.587Z,13.35
2022-08-03T03:24:06.638Z,13.31
2022-08-03T03:24:54.851Z,13.25
2022-08-03T03:25:41.968Z,13.29
2022-08-03T03:26:28.979Z,13.32
2022-08-03T03:27:16.700Z,13.27
2022-08-03T03:28:04.949Z,13.22
2022-08-03T03:28:53.279Z,13.19
2022-08-03T03:29:40.168Z,13.20
2022-08-03T03:30:27.491Z,13.24
2022-08-03T03:31:14.329Z,13.24
2022-08-03T03:32:01.687Z,13.25
2022-08-03T03:32:52.195Z,13.27
2022-08-03T03:33:39.708Z,13.28
2022-08-03T03:34:26.490Z,13.31
2022-08-03T03:35:16.780Z,13.31
2022-08-03T03:36:04.978Z,13.30
2022-08-03T03:36:51.728Z,13.32
2022-08-03T03:37:38.566Z,13.29
2022-08-03T03:38:25.567Z,13.30
2022-08-03T03:39:15.165Z,13.28
2022-08-03T03:40:03.847Z,13.30
2022-08-03T03:40:50.663Z,13.34
2022-08-03T03:41:37.497Z,13.34
2022-08-03T03:42:25.547Z,13.33
2022-08-03T03:43:12.863Z,13.34
2022-08-03T03:43:59.799Z,13.29
2022-08-03T03:44:46.597Z,13.32
2022-08-03T03:45:34.969Z,13.30
2022-08-03T03:46:21.985Z,13.34
2022-08-03T03:47:08.808Z,13.35
2022-08-03T03:47:55.767Z,13.36
2022-08-03T03:48:42.698Z,13.35
2022-08-03T03:49:29.590Z,13.41
2022-08-03T03:50:18.727Z,13.46
2022-08-03T03:51:06.186Z,13.46
2022-08-03T03:51:55.200Z,13.47
2022-08-03T03:52:41.989Z,13.53
2022-08-03T03:53:28.757Z,13.56
2022-08-03T03:54:15.547Z,13.51
2022-08-03T03:55:02.388Z,13.51
2022-08-03T03:55:59.539Z,13.49
2022-08-03T03:56:49.842Z,13.53
2022-08-03T03:57:36.608Z,13.50
2022-08-03T03:58:23.367Z,13.55
2022-08-03T03:59:11.837Z,13.57
2022-08-03T03:59:58.587Z,13.58
2022-08-03T04:00:45.508Z,13.63
2022-08-03T04:01:32.607Z,13.67
2022-08-03T04:02:19.307Z,13.63
2022-08-03T04:03:06.026Z,13.68
2022-08-03T04:03:54.976Z,13.64
2022-08-03T04:05:00.616Z,13.69
2022-08-03T04:06:06.298Z,13.66
2022-08-03T04:07:12.225Z,13.66
2022-08-03T04:08:18.907Z,13.69
2022-08-03T04:09:25.418Z,13.81
2022-08-03T04:10:42.070Z,13.78
2022-08-03T04:11:32.180Z,13.77
2022-08-03T04:12:20.028Z,13.82
2022-08-03T04:13:10.258Z,13.89
2022-08-03T04:13:57.648Z,13.89
2022-08-03T04:14:49.107Z,13.95
2022-08-03T04:15:38.217Z,13.97
2022-08-03T04:16:28.407Z,13.98
2022-08-03T04:17:15.538Z,14.00
2022-08-03T04:18:04.690Z,14.01
2022-08-03T04:18:54.776Z,14.05
2022-08-03T04:19:48.527Z,14.05
2022-08-03T04:20:36.247Z,14.14
2022-08-03T04:21:23.728Z,14.28
2022-08-03T04:22:15.029Z,14.88
2022-08-03T04:23:03.299Z,16.04
2022-08-03T04:24:02.447Z,17.02
2022-08-03T04:24:52.708Z,17.88
2022-08-03T04:25:40.568Z,18.39
2022-08-03T04:26:30.598Z,18.60
2022-08-03T04:27:23.907Z,18.53
2022-08-03T04:28:30.005Z,18.03
2022-08-03T04:29:19.178Z,17.84
2022-08-03T04:30:07.279Z,17.64
2022-08-03T04:30:54.587Z,17.57
2022-08-03T04:31:43.678Z,17.48
2022-08-03T04:32:30.907Z,17.44
2022-08-03T04:33:18.218Z,17.42
2022-08-03T04:34:06.182Z,17.45
2022-08-03T04:34:53.118Z,17.37
2022-08-03T04:36:01.657Z,17.33
2022-08-03T04:36:50.479Z,17.47
2022-08-03T04:37:44.278Z,17.97
2022-08-03T04:38:40.485Z,18.28
2022-08-03T04:39:30.046Z,18.46
2022-08-03T04:40:32.607Z,18.81
2022-08-03T04:41:21.587Z,19.33
2022-08-03T04:42:09.502Z,19.15
2022-08-03T04:42:56.711Z,19.31
2022-08-03T04:43:43.964Z,19.80
2022-08-03T04:44:31.977Z,20.07
2022-08-03T04:45:19.537Z,20.04
2022-08-03T04:46:07.397Z,19.56
2022-08-03T04:46:54.262Z,19.39
2022-08-03T04:47:41.778Z,19.17
2022-08-03T04:48:28.747Z,19.00
2022-08-03T04:49:16.298Z,18.95
2022-08-03T04:50:04.957Z,18.89
2022-08-03T04:50:54.187Z,18.91
2022-08-03T04:51:41.067Z,18.94
2022-08-03T04:52:27.877Z,18.98
2022-08-03T04:53:14.627Z,18.94
2022-08-03T04:54:02.255Z,19.05
2022-08-03T04:54:50.820Z,19.24
2022-08-03T04:55:37.802Z,19.40
2022-08-03T04:56:24.687Z,19.47
2022-08-03T04:57:22.331Z,19.83
2022-08-03T04:58:10.617Z,20.37
2022-08-03T04:58:57.417Z,21.76
2022-08-03T04:59:44.311Z,22.99
2022-08-03T05:00:31.623Z,24.18
2022-08-03T05:01:20.619Z,24.91
2022-08-03T05:02:07.520Z,25.10
2022-08-03T05:02:54.487Z,25.44
2022-08-03T05:03:41.268Z,25.60
2022-08-03T05:04:28.008Z,25.12
2022-08-03T05:05:16.015Z,24.52
2022-08-03T05:06:09.683Z,23.90
2022-08-03T05:06:57.998Z,23.47
2022-08-03T05:07:45.150Z,23.10
2022-08-03T05:08:32.028Z,22.51
2022-08-03T05:09:25.924Z,22.12
2022-08-03T05:10:25.659Z,21.93
2022-08-03T05:11:12.476Z,21.85
2022-08-03T05:11:59.201Z,21.81
2022-08-03T05:12:46.614Z,21.82
2022-08-03T05:13:33.506Z,21.91
2022-08-03T05:14:28.307Z,22.08
2022-08-03T05:15:15.388Z,22.45
2022-08-03T05:16:02.287Z,22.93
2022-08-03T05:16:49.039Z,23.53
2022-08-03T05:17:38.097Z,24.11
2022-08-03T05:18:24.896Z,24.35
2022-08-03T05:19:11.618Z,24.46
2022-08-03T05:19:58.278Z,24.70
2022-08-03T05:20:45.049Z,24.84
2022-08-03T05:21:50.313Z,24.85
2022-08-03T05:22:39.073Z,24.93
2022-08-03T05:23:25.833Z,24.92
2022-08-03T05:24:12.569Z,24.91
2022-08-03T05:24:59.348Z,24.57
2022-08-03T05:25:50.044Z,24.29
2022-08-03T05:26:37.399Z,23.74
2022-08-03T05:27:24.157Z,23.33
2022-08-03T05:28:10.940Z,23.32
2022-08-03T05:28:57.651Z,23.29
2022-08-03T05:29:44.420Z,23.14
2022-08-03T05:30:34.017Z,23.00
2022-08-03T05:31:21.228Z,23.12
2022-08-03T05:32:08.515Z,23.43
2022-08-03T05:32:55.688Z,23.64
2022-08-03T05:33:44.958Z,23.53
2022-08-03T05:34:32.108Z,23.33
2022-08-03T05:35:57.366Z,23.22
2022-08-03T05:36:25.538Z,22.99
2022-08-03T05:37:12.439Z,22.99
2022-08-03T05:37:59.179Z,22.83
2022-08-03T05:38:46.028Z,22.70
2022-08-03T05:39:33.258Z,22.60
2022-08-03T05:40:20.178Z,22.38
2022-08-03T05:41:22.580Z,22.20
2022-08-03T05:42:10.840Z,22.13
2022-08-03T05:42:57.768Z,21.99
2022-08-03T05:43:45.299Z,21.82
2022-08-03T05:44:32.362Z,21.86
2022-08-03T05:45:19.148Z,22.00
2022-08-03T05:46:12.275Z,21.99
2022-08-03T05:46:59.668Z,21.99
2022-08-03T05:47:46.627Z,21.84
2022-08-03T05:48:33.358Z,21.73
2022-08-03T05:49:20.685Z,21.63
2022-08-03T05:50:08.129Z,21.79
2022-08-03T05:50:54.899Z,21.87
2022-08-03T05:51:41.665Z,21.87
2022-08-03T05:52:28.597Z,21.91
2022-08-03T05:53:15.451Z,21.97
2022-08-03T05:54:02.657Z,22.02
2022-08-03T05:54:56.647Z,22.13
2022-08-03T05:55:44.387Z,22.06
2022-08-03T05:56:31.304Z,22.03
2022-08-03T05:57:18.088Z,22.07
2022-08-03T05:58:05.049Z,22.08
2022-08-03T05:58:52.679Z,22.17
2022-08-03T05:59:39.360Z,22.25
2022-08-03T06:00:40.488Z,22.18
2022-08-03T06:01:27.442Z,22.05
2022-08-03T06:02:14.309Z,22.08
2022-08-03T06:03:01.187Z,21.99
2022-08-03T06:03:48.879Z,21.89
2022-08-03T06:04:35.620Z,21.96
2022-08-03T06:05:22.370Z,21.88
2022-08-03T06:06:09.169Z,21.89
2022-08-03T06:06:55.956Z,21.89
2022-08-03T06:07:42.759Z,21.74
2022-08-03T06:08:29.497Z,21.71
2022-08-03T06:09:17.132Z,21.72
2022-08-03T06:10:35.416Z,21.72
2022-08-03T06:11:12.809Z,21.75
2022-08-03T06:11:59.587Z,21.85
2022-08-03T06:12:49.459Z,21.93
2022-08-03T06:13:36.378Z,21.91
2022-08-03T06:14:23.158Z,21.92
2022-08-03T06:15:11.282Z,21.94
2022-08-03T06:15:58.409Z,22.01
2022-08-03T06:16:45.168Z,22.00
2022-08-03T06:17:37.241Z,22.00
2022-08-03T06:18:24.822Z,22.02
2022-08-03T06:19:11.591Z,22.09
2022-08-03T06:19:58.539Z,22.10
2022-08-03T06:20:45.538Z,22.19
2022-08-03T06:21:34.038Z,22.17
2022-08-03T06:22:21.519Z,22.24
2022-08-03T06:23:08.290Z,22.19
2022-08-03T06:24:03.046Z,22.08
2022-08-03T06:24:53.654Z,22.05
2022-08-03T06:25:40.579Z,22.07
2022-08-03T06:26:28.730Z,22.16
2022-08-03T06:27:15.603Z,22.16
2022-08-03T06:28:02.496Z,22.19
2022-08-03T06:28:53.203Z,22.14
2022-08-03T06:29:40.940Z,22.10
2022-08-03T06:30:27.839Z,22.10
2022-08-03T06:31:14.619Z,22.13
2022-08-03T06:32:01.459Z,22.20
2022-08-03T06:32:51.902Z,22.26
2022-08-03T06:34:30.721Z,22.28
2022-08-03T06:34:46.019Z,22.33
2022-08-03T06:35:33.659Z,22.34
2022-08-03T06:36:22.740Z,22.33
2022-08-03T06:37:09.549Z,22.45
2022-08-03T06:37:56.447Z,22.47
2022-08-03T06:38:43.182Z,22.47
2022-08-03T06:39:30.303Z,22.47
2022-08-03T06:40:24.385Z,22.39
2022-08-03T06:41:11.477Z,22.57
2022-08-03T06:41:58.325Z,22.76
2022-08-03T06:42:45.161Z,22.95
2022-08-03T06:43:36.025Z,23.08
2022-08-03T06:44:22.856Z,23.14
2022-08-03T06:45:10.189Z,23.22
2022-08-03T06:45:56.951Z,23.29
2022-08-03T06:46:43.706Z,23.50
2022-08-03T06:47:30.518Z,23.58
2022-08-03T06:48:17.759Z,23.37
2022-08-03T06:49:04.720Z,23.37
2022-08-03T06:50:16.267Z,23.41
2022-08-03T06:50:58.318Z,23.32
2022-08-03T06:52:04.568Z,23.33
2022-08-03T06:52:51.900Z,23.24
2022-08-03T06:53:38.812Z,23.43
2022-08-03T06:54:25.709Z,23.64
2022-08-03T06:55:12.452Z,23.84
2022-08-03T06:55:59.269Z,23.89
2022-08-03T06:56:46.019Z,23.78
2022-08-03T06:57:32.816Z,23.70
2022-08-03T06:58:19.641Z,23.62
2022-08-03T06:59:06.423Z,23.67
2022-08-03T07:00:10.363Z,23.58
2022-08-03T07:00:58.620Z,23.48
2022-08-03T07:01:45.534Z,23.46
2022-08-03T07:02:32.340Z,23.41
2022-08-03T07:03:19.151Z,23.38
2022-08-03T07:04:06.240Z,23.41
2022-08-03T07:04:52.993Z,23.37
2022-08-03T07:05:40.248Z,23.28
2022-08-03T07:06:27.091Z,23.37
2022-08-03T07:07:14.248Z,23.47
2022-08-03T07:08:03.261Z,23.52
2022-08-03T07:08:52.945Z,23.52
2022-08-03T07:09:41.731Z,23.53
2022-08-03T07:10:28.919Z,23.61
2022-08-03T07:11:15.720Z,23.67
2022-08-03T07:12:02.678Z,23.64
2022-08-03T07:12:55.865Z,23.62
2022-08-03T07:13:43.710Z,23.72
2022-08-03T07:14:30.479Z,23.79
2022-08-03T07:15:20.238Z,23.92
2022-08-03T07:16:25.213Z,24.03
2022-08-03T07:17:12.138Z,24.13
2022-08-03T07:17:58.987Z,24.13
2022-08-03T07:18:45.699Z,24.00
2022-08-03T07:19:32.391Z,24.02
2022-08-03T07:20:19.498Z,24.12
2022-08-03T07:21:06.441Z,24.21
2022-08-03T07:21:53.555Z,24.34
2022-08-03T07:22:40.428Z,24.40
2022-08-03T07:23:27.271Z,24.41
2022-08-03T07:24:14.043Z,24.49
2022-08-03T07:25:00.841Z,24.35
2022-08-03T07:25:47.570Z,24.23
2022-08-03T07:26:34.349Z,24.20
2022-08-03T07:27:21.518Z,24.34
2022-08-03T07:28:08.600Z,24.46
2022-08-03T07:28:55.490Z,24.50
2022-08-03T07:29:42.399Z,24.50
2022-08-03T07:30:29.119Z,24.52
2022-08-03T07:31:15.910Z,24.60
2022-08-03T07:32:03.931Z,24.63
2022-08-03T07:32:50.898Z,24.65
2022-08-03T07:33:37.619Z,24.70
2022-08-03T07:34:24.371Z,24.75
2022-08-03T07:35:25.187Z,24.81
2022-08-03T07:36:12.189Z,24.65
2022-08-03T07:36:59.019Z,24.72
2022-08-03T07:37:46.122Z,24.83
2022-08-03T07:38:41.520Z,24.86
2022-08-03T07:39:28.227Z,24.90
2022-08-03T07:40:14.921Z,24.98
2022-08-03T07:41:01.589Z,24.97
2022-08-03T07:41:50.630Z,25.00
2022-08-03T07:42:37.319Z,24.95
2022-08-03T07:43:24.502Z,25.03
2022-08-03T07:44:11.162Z,25.04
2022-08-03T07:44:58.749Z,25.03
2022-08-03T07:45:45.441Z,25.13
2022-08-03T07:46:32.966Z,25.22
2022-08-03T07:47:23.987Z,25.28
2022-08-03T07:48:12.623Z,25.30
2022-08-03T07:48:59.427Z,25.33
2022-08-03T07:49:47.022Z,25.31
2022-08-03T07:50:33.979Z,25.20
2022-08-03T07:51:20.707Z,25.24
2022-08-03T07:52:28.383Z,25.21
2022-08-03T07:53:15.249Z,25.22
2022-08-03T07:54:01.949Z,25.25
2022-08-03T07:54:48.610Z,25.27
2022-08-03T07:55:35.341Z,25.27
2022-08-03T07:56:22.924Z,25.23
2022-08-03T07:57:09.557Z,25.24
2022-08-03T07:58:07.862Z,25.25
2022-08-03T07:58:55.462Z,25.22
2022-08-03T08:00:01.485Z,25.25
2022-08-03T08:00:48.970Z,25.25
2022-08-03T08:01:38.072Z,25.09
2022-08-03T08:02:24.982Z,25.07
2022-08-03T08:03:12.419Z,25.14
2022-08-03T08:03:59.049Z,25.19
2022-08-03T08:04:45.688Z,25.22
2022-08-03T08:05:32.488Z,25.18
2022-08-03T08:06:19.400Z,25.19
2022-08-03T08:07:06.160Z,25.25
2022-08-03T08:07:52.837Z,25.34
2022-08-03T08:08:40.189Z,25.30
2022-08-03T08:09:26.971Z,25.20
2022-08-03T08:10:16.193Z,25.27
2022-08-03T08:11:02.868Z,25.35
2022-08-03T08:11:50.352Z,25.35
2022-08-03T08:12:38.703Z,25.39
2022-08-03T08:13:25.392Z,25.41
2022-08-03T08:14:12.591Z,25.40
2022-08-03T08:15:00.051Z,25.33
2022-08-03T08:15:46.940Z,25.40
2022-08-03T08:16:34.079Z,25.44
2022-08-03T08:17:20.832Z,25.40
2022-08-03T08:18:07.458Z,25.40
2022-08-03T08:18:54.199Z,25.42
2022-08-03T08:19:43.777Z,25.46
2022-08-03T08:20:39.109Z,25.42
2022-08-03T08:21:27.289Z,25.42
2022-08-03T08:22:33.988Z,25.36
2022-08-03T08:23:41.964Z,25.47
2022-08-03T08:24:30.618Z,25.47
2022-08-03T08:25:19.361Z,25.43
2022-08-03T08:26:06.188Z,25.48
2022-08-03T08:26:52.838Z,25.55
2022-08-03T08:28:22.276Z,25.63
2022-08-03T08:28:54.839Z,25.73
2022-08-03T08:29:52.664Z,25.72
2022-08-03T08:30:43.318Z,25.63
2022-08-03T08:31:30.230Z,25.74
2022-08-03T08:32:17.011Z,25.70
2022-08-03T08:33:03.999Z,25.78
2022-08-03T08:34:05.915Z,25.85
2022-08-03T08:34:53.378Z,25.84
2022-08-03T08:35:40.151Z,25.72
2022-08-03T08:36:26.964Z,25.79
2022-08-03T08:37:13.719Z,25.85
2022-08-03T08:38:05.558Z,25.93
2022-08-03T08:38:52.724Z,25.80
2022-08-03T08:39:39.580Z,25.84
2022-08-03T08:40:27.754Z,25.75
2022-08-03T08:41:15.478Z,25.79
2022-08-03T08:42:02.259Z,25.86
2022-08-03T08:42:58.464Z,25.87
2022-08-03T08:43:45.758Z,25.82
2022-08-03T08:44:32.469Z,25.86
2022-08-03T08:45:19.588Z,25.94
2022-08-03T08:46:08.626Z,25.98
2022-08-03T08:46:55.970Z,26.07
2022-08-03T08:47:51.525Z,26.00
2022-08-03T08:48:42.709Z,26.08
2022-08-03T08:49:30.291Z,26.11
2022-08-03T08:50:27.629Z,26.08
2022-08-03T08:51:16.871Z,26.12
2022-08-03T08:52:04.432Z,26.18
2022-08-03T08:53:17.640Z,26.14
2022-08-03T08:54:08.328Z,26.29
2022-08-03T08:55:04.288Z,26.20
2022-08-03T08:55:58.557Z,26.24
2022-08-03T08:56:47.408Z,26.34
2022-08-03T08:57:43.246Z,26.29
2022-08-03T08:58:37.446Z,26.30
2022-08-03T08:59:25.609Z,26.33
2022-08-03T09:00:14.844Z,26.37
2022-08-03T09:01:01.725Z,26.40
2022-08-03T09:01:48.618Z,26.46
2022-08-03T09:02:35.744Z,26.41
2022-08-03T09:03:30.182Z,26.47
2022-08-03T09:04:17.818Z,26.46
2022-08-03T09:05:07.496Z,26.50
2022-08-03T09:05:56.337Z,26.57
2022-08-03T09:06:58.608Z,26.59
2022-08-03T09:07:50.357Z,26.62
2022-08-03T09:08:37.199Z,26.68
2022-08-03T09:10:08.834Z,26.68
2022-08-03T09:10:31.079Z,26.72
2022-08-03T09:11:22.308Z,26.82
2022-08-03T09:12:41.552Z,26.84
2022-08-03T09:13:30.649Z,26.75
2022-08-03T09:14:36.697Z,26.82
2022-08-03T09:15:32.573Z,26.80
2022-08-03T09:16:23.198Z,26.91
2022-08-03T09:17:10.189Z,26.94
2022-08-03T09:18:04.758Z,26.96
2022-08-03T09:18:54.977Z,27.01
2022-08-03T09:19:42.780Z,27.04
2022-08-03T09:20:49.541Z,26.99
2022-08-03T09:21:36.344Z,26.97
2022-08-03T09:22:23.187Z,27.00
2022-08-03T09:23:51.433Z,26.93
2022-08-03T09:24:40.688Z,26.98
2022-08-03T09:25:35.638Z,26.85
2022-08-03T09:26:27.818Z,26.95
2022-08-03T09:27:14.804Z,27.03
2022-08-03T09:28:59.916Z,27.11
2022-08-03T09:29:23.868Z,27.06
2022-08-03T09:30:33.244Z,27.04
2022-08-03T09:31:29.837Z,27.14
2022-08-03T09:32:20.320Z,27.07
2022-08-03T09:33:08.377Z,27.13
2022-08-03T09:33:59.978Z,27.18
2022-08-03T09:34:48.918Z,27.20
2022-08-03T09:35:58.815Z,27.31
2022-08-03T09:36:47.950Z,27.35
2022-08-03T09:38:13.504Z,27.41
2022-08-03T09:38:41.608Z,27.52
2022-08-03T09:39:41.055Z,27.49
2022-08-03T09:40:38.051Z,27.54
2022-08-03T09:41:24.830Z,27.41
2022-08-03T09:42:18.423Z,27.51
2022-08-03T09:43:08.309Z,27.58
2022-08-03T09:43:57.229Z,27.65
2022-08-03T09:44:49.479Z,27.66
2022-08-03T09:45:40.138Z,27.63
2022-08-03T09:46:28.649Z,27.62
2022-08-03T09:47:29.557Z,27.67
2022-08-03T09:48:30.547Z,27.71
2022-08-03T09:49:18.201Z,27.83
2022-08-03T09:50:09.159Z,27.78
2022-08-03T09:51:13.044Z,27.85
2022-08-03T09:52:38.198Z,27.82
2022-08-03T09:53:20.090Z,27.76
2022-08-03T09:54:15.052Z,27.78
2022-08-03T09:56:33.541Z,27.86
2022-08-03T09:56:34.643Z,27.79
2022-08-03T09:57:24.591Z,27.85
2022-08-03T09:58:11.503Z,27.78
2022-08-03T09:58:58.219Z,27.91
2022-08-03T09:59:45.038Z,28.02
2022-08-03T10:00:32.109Z,28.00
2022-08-03T10:01:25.359Z,27.98
2022-08-03T10:02:25.233Z,27.88
2022-08-03T10:03:11.998Z,27.77
2022-08-03T10:04:03.414Z,27.83
2022-08-03T10:04:53.337Z,27.92
2022-08-03T10:05:44.668Z,28.01
2022-08-03T10:06:31.544Z,28.13
2022-08-03T10:07:19.684Z,28.24
2022-08-03T10:08:15.117Z,28.30
2022-08-03T10:09:20.664Z,28.29
2022-08-03T10:10:28.942Z,28.19
2022-08-03T10:11:30.077Z,28.26
2022-08-03T10:12:17.269Z,28.22
2022-08-03T10:13:04.116Z,28.31
2022-08-03T10:13:50.949Z,28.33
2022-08-03T10:14:48.347Z,28.30
2022-08-03T10:16:22.824Z,28.36
2022-08-03T10:16:41.968Z,28.40
2022-08-03T10:17:28.698Z,28.45
2022-08-03T10:18:15.497Z,28.53
2022-08-03T10:19:06.259Z,28.48
2022-08-03T10:19:53.208Z,28.49
2022-08-03T10:20:49.049Z,28.56
2022-08-03T10:21:38.873Z,28.63
2022-08-03T10:22:30.701Z,28.61
2022-08-03T10:23:18.454Z,28.59
2022-08-03T10:24:10.908Z,28.63
2022-08-03T10:25:04.677Z,28.66
2022-08-03T10:25:55.389Z,28.76
2022-08-03T10:26:49.705Z,28.73
2022-08-03T10:27:39.099Z,28.77
2022-08-03T10:28:26.209Z,28.78
2022-08-03T10:29:19.066Z,28.84
2022-08-03T10:30:11.273Z,28.91
2022-08-03T10:30:58.252Z,28.84
2022-08-03T10:31:55.894Z,28.87
2022-08-03T10:32:49.799Z,28.92
2022-08-03T10:33:52.011Z,28.90
2022-08-03T10:34:44.410Z,28.90
2022-08-03T10:35:31.898Z,28.84
2022-08-03T10:36:19.099Z,28.79
2022-08-03T10:37:10.599Z,28.68
2022-08-03T10:38:02.427Z,28.75
2022-08-03T10:38:54.438Z,28.76
2022-08-03T10:39:53.596Z,28.86
2022-08-03T10:40:48.586Z,28.71
2022-08-03T10:41:42.811Z,28.67
2022-08-03T10:42:31.611Z,28.77
2022-08-03T10:43:25.691Z,28.90
2022-08-03T10:44:20.488Z,28.94
2022-08-03T10:45:13.596Z,28.99
2022-08-03T10:46:01.208Z,28.86
2022-08-03T10:46:51.247Z,28.84
2022-08-03T10:47:38.161Z,28.89
2022-08-03T10:48:25.546Z,28.91
2022-08-03T10:49:32.829Z,28.89
2022-08-03T10:50:24.757Z,28.83
2022-08-03T10:51:12.143Z,28.93